Abingdon, Iowa
Current Conditions -  °F | °C
As of 9:35 AM on Friday 24 Oct 2014 (Local Time) from KFFL Reporting Station
Overcast Overcast  
Wind Chill: 55°   Ceiling: 300
Heat Index: 55°   Visibility: NA
Dew Point: 55°   Wind: 12mph
Humidity: 100%   Direction: 170°S
Pressure: 30.05"   Gusts: NA
Location:  40.9883°N, 92.1215°W
Report Text: KFFL 241435Z AUTO 17010KT OVC003 13/13 A3005 RMK AO2
Loading
Personal Weather Stations






























Interactive Weather Map New forecast layout! Learn more

10-Day Weather Forecast

Advertisements
Track Severe Weather on mobile